Time;durP1;ratioP1;P1;durP2;ratioP2;P2;SDS_P1;SDS_P2;PMS_P1;PMS_P2;Temp;Humidity;BMP_temperature;BMP_pressure;BME280_temperature;BME280_humidity;BME280_pressure;Samples;Min_cycle;Max_cycle;Signal;HPM_P1;HPM_P2
2023/06/05 00:01:26;;;;;;;;;;;;;;;19.51;nan;102304.94;5035364;28;19925;-83
2023/06/05 00:03:53;;;;;;;;;;;;;;;19.47;nan;102301.94;5036722;28;20016;-82
2023/06/05 00:06:18;;;;;;;;;;;;;;;19.44;nan;102307.94;5042466;28;19920;-83
2023/06/05 00:08:44;;;;;;;;;;;;;;;19.39;nan;102307.09;5047679;28;20567;-83
2023/06/05 00:11:09;;;;;;;;;;;;;;;19.35;nan;102306.81;5045575;28;19921;-83
2023/06/05 00:13:35;;;;;;;;;;;;;;;19.31;nan;102308.44;5045183;28;19955;-82
2023/06/05 00:16:02;;;;;;;;;;;;;;;19.28;nan;102304.38;5045445;28;20023;-83
2023/06/05 00:18:28;;;;;;;;;;;;;;;19.23;nan;102307.09;5046893;28;20286;-83
2023/06/05 00:20:53;;;;;;;;;;;;;;;19.16;nan;102308.41;5042689;28;19971;-83
2023/06/05 00:23:19;;;;;;;;;;;;;;;19.09;nan;102302.41;5043869;28;19917;-82
2023/06/05 00:25:44;;;;;;;;;;;;;;;19.02;nan;102298.03;5044289;28;19916;-83
2023/06/05 00:28:09;;;;;;;;;;;;;;;18.99;nan;102306.72;5044874;28;19971;-82
2023/06/05 00:30:36;;;;;;;;;;;;;;;18.95;nan;102302.91;5043110;28;19917;-82
2023/06/05 00:33:02;;;;;;;;;;;;;;;18.89;nan;102305.88;5044469;28;19947;-82
2023/06/05 00:35:27;;;;;;;;;;;;;;;18.83;nan;102307.75;5041541;28;20359;-82
2023/06/05 00:37:52;;;;;;;;;;;;;;;18.78;nan;102302.31;5045215;28;19956;-82
2023/06/05 00:40:18;;;;;;;;;;;;;;;18.74;nan;102301.22;5043264;28;19967;-83
2023/06/05 00:42:43;;;;;;;;;;;;;;;18.71;nan;102297.13;5043658;28;19960;-82
2023/06/05 00:45:08;;;;;;;;;;;;;;;18.68;nan;102291.41;5040312;28;19921;-84
2023/06/05 00:47:34;;;;;;;;;;;;;;;18.65;nan;102302.78;5046947;28;19924;-82
2023/06/05 00:50:00;;;;;;;;;;;;;;;18.66;nan;102312.56;5045981;28;20508;-82
2023/06/05 00:52:26;;;;;;;;;;;;;;;18.64;nan;102301.16;5044368;28;19970;-83
2023/06/05 00:54:51;;;;;;;;;;;;;;;18.59;nan;102303.81;5046172;28;19917;-83
2023/06/05 00:57:17;;;;;;;;;;;;;;;18.50;nan;102299.97;5043557;28;19970;-82
2023/06/05 00:59:44;;;;;;;;;;;;;;;18.41;nan;102303.19;5037185;28;19955;-82
2023/06/05 01:02:10;;;;;;;;;;;;;;;18.34;nan;102297.19;5061343;28;19920;-82
2023/06/05 01:04:36;;;;;;;;;;;;;;;18.27;nan;102302.00;5044144;28;19952;-83
2023/06/05 01:07:02;;;;;;;;;;;;;;;18.22;nan;102304.69;5042984;28;20324;-82
2023/06/05 01:09:30;;;;;;;;;;;;;;;18.16;nan;102294.91;5047387;28;19960;-82
2023/06/05 01:11:56;;;;;;;;;;;;;;;18.14;nan;102301.66;5043546;28;19931;-82
2023/06/05 01:14:22;;;;;;;;;;;;;;;18.14;nan;102298.94;5044490;28;20015;-82
2023/06/05 01:16:48;;;;;;;;;;;;;;;18.14;nan;102302.47;5041396;28;20473;-82
2023/06/05 01:19:14;;;;;;;;;;;;;;;18.09;nan;102305.13;5046056;28;20411;-83
2023/06/05 01:21:40;;;;;;;;;;;;;;;18.05;nan;102304.84;5041753;28;19921;-83
2023/06/05 01:24:05;;;;;;;;;;;;;;;18.02;nan;102304.56;5047212;28;19967;-83
2023/06/05 01:26:40;;;;;;;;;;;;;;;17.98;nan;102308.88;5044243;28;19920;-83
2023/06/05 01:29:08;;;;;;;;;;;;;;;17.92;nan;102307.19;5045519;28;20008;-82
2023/06/05 01:31:36;;;;;;;;;;;;;;;17.87;nan;102309.84;5045518;28;19948;-83
2023/06/05 01:34:05;;;;;;;;;;;;;;;17.83;nan;102306.03;5045350;28;20445;-82
2023/06/05 01:36:31;;;;;;;;;;;;;;;17.79;nan;102313.88;5041195;28;20863;-82
2023/06/05 01:38:58;;;;;;;;;;;;;;;17.73;nan;102306.75;5040585;28;20043;-83
2023/06/05 01:41:26;;;;;;;;;;;;;;;17.67;nan;102302.34;5046212;28;19916;-83
2023/06/05 01:43:52;;;;;;;;;;;;;;;17.58;nan;102301.97;5043204;28;19928;-83
2023/06/05 01:46:19;;;;;;;;;;;;;;;17.55;nan;102294.38;5042308;28;19921;-83
2023/06/05 01:48:45;;;;;;;;;;;;;;;17.53;nan;102300.03;5043749;28;20434;-82
2023/06/05 01:51:10;;;;;;;;;;;;;;;17.55;nan;102304.38;5044152;28;19920;-82
2023/06/05 01:53:35;;;;;;;;;;;;;;;17.51;nan;102299.47;5042497;28;19920;-82
2023/06/05 01:56:02;;;;;;;;;;;;;;;17.47;nan;102297.56;5045360;28;19917;-83
2023/06/05 01:58:27;;;;;;;;;;;;;;;17.41;nan;102295.84;5042922;28;19979;-82
2023/06/05 02:00:53;;;;;;;;;;;;;;;17.36;nan;102293.09;5041907;28;20623;-82
2023/06/05 02:03:19;;;;;;;;;;;;;;;17.29;nan;102296.03;5043959;28;19924;-82
2023/06/05 02:05:44;;;;;;;;;;;;;;;17.25;nan;102294.09;5043312;28;19917;-82
2023/06/05 02:08:10;;;;;;;;;;;;;;;17.15;nan;102290.19;5045619;28;19970;-82
2023/06/05 02:10:37;;;;;;;;;;;;;;;17.07;nan;102293.34;5048083;28;19976;-82
2023/06/05 02:13:03;;;;;;;;;;;;;;;16.97;nan;102290.53;5045200;28;19985;-83
2023/06/05 02:15:31;;;;;;;;;;;;;;;16.94;nan;102290.22;5044826;28;20537;-82
2023/06/05 02:17:57;;;;;;;;;;;;;;;16.91;nan;102284.25;5044208;28;19936;-83
2023/06/05 02:20:27;;;;;;;;;;;;;;;16.91;nan;102283.41;5038779;28;19986;-83
2023/06/05 02:22:54;;;;;;;;;;;;;;;16.88;nan;102281.22;5042156;28;19921;-82
2023/06/05 02:25:20;;;;;;;;;;;;;;;16.84;nan;102280.06;5055562;28;20019;-82
2023/06/05 02:27:46;;;;;;;;;;;;;;;16.80;nan;102287.06;5042901;28;19951;-82
2023/06/05 02:30:12;;;;;;;;;;;;;;;16.76;nan;102275.94;5046793;28;19948;-82
2023/06/05 02:32:41;;;;;;;;;;;;;;;16.75;nan;102276.19;5043640;28;19924;-82
2023/06/05 02:35:10;;;;;;;;;;;;;;;16.76;nan;102275.13;5060228;28;19916;-83
2023/06/05 02:37:43;;;;;;;;;;;;;;;16.75;nan;102268.06;5044130;28;19936;-82
2023/06/05 02:40:08;;;;;;;;;;;;;;;16.70;nan;102274.25;5047807;28;19921;-83
2023/06/05 02:42:35;;;;;;;;;;;;;;;16.67;nan;102276.59;5048316;28;19916;-82
2023/06/05 02:45:00;;;;;;;;;;;;;;;16.61;nan;102290.06;5049386;28;19943;-82
2023/06/05 02:47:26;;;;;;;;;;;;;;;16.59;nan;102284.06;5045930;28;19916;-83
2023/06/05 02:49:51;;;;;;;;;;;;;;;16.57;nan;102278.09;5048642;28;19963;-82
2023/06/05 02:52:16;;;;;;;;;;;;;;;16.54;nan;102278.59;5047495;28;19917;-83
2023/06/05 02:54:42;;;;;;;;;;;;;;;16.53;nan;102276.97;5049384;28;19963;-82
2023/06/05 02:57:07;;;;;;;;;;;;;;;16.55;nan;102271.31;5048370;28;19928;-82
2023/06/05 02:59:39;;;;;;;;;;;;;;;16.50;nan;102276.63;5043706;28;19916;-83
2023/06/05 03:02:04;;;;;;;;;;;;;;;16.48;nan;102276.88;5044916;28;19920;-82
2023/06/05 03:04:30;;;;;;;;;;;;;;;16.43;nan;102271.41;5046521;28;19921;-82
2023/06/05 03:06:56;;;;;;;;;;;;;;;16.37;nan;102268.91;5043910;28;19921;-82
2023/06/05 03:09:22;;;;;;;;;;;;;;;16.31;nan;102268.81;5044350;28;19916;-82
2023/06/05 03:11:47;;;;;;;;;;;;;;;16.29;nan;102268.25;5042595;28;20329;-82
2023/06/05 03:14:12;;;;;;;;;;;;;;;16.32;nan;102269.63;5045462;28;20019;-82
2023/06/05 03:16:41;;;;;;;;;;;;;;;16.35;nan;102268.34;5045938;28;19939;-83
2023/06/05 03:19:07;;;;;;;;;;;;;;;16.35;nan;102271.84;5044893;28;19970;-82
2023/06/05 03:21:33;;;;;;;;;;;;;;;16.32;nan;102270.44;5045777;28;19921;-82
2023/06/05 03:23:58;;;;;;;;;;;;;;;16.31;nan;102268.81;5047122;28;19932;-82
2023/06/05 03:26:25;;;;;;;;;;;;;;;16.31;nan;102268.00;5047805;28;19916;-82
2023/06/05 03:28:51;;;;;;;;;;;;;;;16.32;nan;102269.63;5045958;28;19921;-82
2023/06/05 03:31:16;;;;;;;;;;;;;;;16.32;nan;102264.22;5045702;28;19962;-82
2023/06/05 03:33:41;;;;;;;;;;;;;;;16.35;nan;102269.16;5044967;28;19928;-82
2023/06/05 03:36:07;;;;;;;;;;;;;;;16.35;nan;102266.44;5041796;28;19924;-82
2023/06/05 03:38:33;;;;;;;;;;;;;;;16.37;nan;102267.00;5048122;28;19923;-83
2023/06/05 03:40:58;;;;;;;;;;;;;;;16.40;nan;102263.81;5046302;28;19916;-82
2023/06/05 03:43:24;;;;;;;;;;;;;;;16.45;nan;102271.97;5045925;28;19917;-82
2023/06/05 03:45:51;;;;;;;;;;;;;;;16.46;nan;102265.50;5043998;28;19924;-82
2023/06/05 03:48:19;;;;;;;;;;;;;;;16.51;nan;102264.75;5047572;28;19921;-82
2023/06/05 03:50:44;;;;;;;;;;;;;;;16.52;nan;102267.22;5045516;28;19987;-82
2023/06/05 03:53:13;;;;;;;;;;;;;;;16.53;nan;102271.56;5043599;28;20428;-82
2023/06/05 03:55:44;;;;;;;;;;;;;;;16.54;nan;102259.66;5043878;28;20654;-82
2023/06/05 03:58:13;;;;;;;;;;;;;;;16.59;nan;102270.53;5045291;28;20023;-82
2023/06/05 04:00:38;;;;;;;;;;;;;;;16.62;nan;102264.63;5044765;28;19920;-82
2023/06/05 04:03:04;;;;;;;;;;;;;;;16.71;nan;102272.34;5046514;28;19920;-83
2023/06/05 04:05:29;;;;;;;;;;;;;;;16.79;nan;102270.00;5045193;28;19929;-83
2023/06/05 04:07:55;;;;;;;;;;;;;;;16.90;nan;102270.97;5045439;28;19935;-83
2023/06/05 04:10:21;;;;;;;;;;;;;;;17.01;nan;102269.16;5041586;28;19921;-82
2023/06/05 04:12:46;;;;;;;;;;;;;;;17.13;nan;102265.25;5041425;28;21644;-82
2023/06/05 04:15:12;;;;;;;;;;;;;;;17.22;nan;102274.53;5044721;28;19929;-83
2023/06/05 04:17:37;;;;;;;;;;;;;;;17.31;nan;102274.09;5044949;28;19929;-83
2023/06/05 04:20:04;;;;;;;;;;;;;;;17.40;nan;102276.06;5043969;28;20377;-82
2023/06/05 04:22:29;;;;;;;;;;;;;;;17.50;nan;102278.88;5045743;28;19920;-83
2023/06/05 04:24:54;;;;;;;;;;;;;;;17.60;nan;102280.88;5045904;28;20308;-83
2023/06/05 04:27:20;;;;;;;;;;;;;;;17.71;nan;102282.63;5044549;28;19971;-84
2023/06/05 04:29:46;;;;;;;;;;;;;;;17.84;nan;102280.56;5039425;28;19963;-83
2023/06/05 04:32:11;;;;;;;;;;;;;;;17.91;nan;102284.66;5043289;28;19932;-83
2023/06/05 04:34:37;;;;;;;;;;;;;;;17.98;nan;102281.75;5047261;28;19924;-83
2023/06/05 04:37:03;;;;;;;;;;;;;;;18.06;nan;102279.34;5042016;28;19925;-83
2023/06/05 04:39:28;;;;;;;;;;;;;;;18.15;nan;102277.00;5042743;28;19932;-83
2023/06/05 04:41:54;;;;;;;;;;;;;;;18.23;nan;102273.75;5043236;28;19920;-83
2023/06/05 04:44:20;;;;;;;;;;;;;;;18.35;nan;102282.53;5043757;28;19917;-84
2023/06/05 04:46:45;;;;;;;;;;;;;;;18.47;nan;102284.19;5044801;28;20442;-83
2023/06/05 04:49:15;;;;;;;;;;;;;;;18.57;nan;102285.06;5046055;28;20384;-83
2023/06/05 04:51:41;;;;;;;;;;;;;;;18.69;nan;102282.19;5043975;28;19917;-84
2023/06/05 04:54:06;;;;;;;;;;;;;;;18.82;nan;102283.56;5043847;28;19920;-84
2023/06/05 04:56:32;;;;;;;;;;;;;;;18.95;nan;102278.47;5043811;28;20313;-84
2023/06/05 04:58:59;;;;;;;;;;;;;;;19.09;nan;102272.53;5032072;28;19925;-83
2023/06/05 05:01:24;;;;;;;;;;;;;;;19.22;nan;102272.03;5032861;28;20511;-83
2023/06/05 05:03:51;;;;;;;;;;;;;;;19.33;nan;102276.38;5044554;28;20007;-84
2023/06/05 05:06:16;;;;;;;;;;;;;;;19.45;nan;102273.41;5044952;28;19924;-83
2023/06/05 05:08:44;;;;;;;;;;;;;;;19.58;nan;102268.28;5041852;28;20372;-83
2023/06/05 05:11:10;;;;;;;;;;;;;;;19.69;nan;102269.09;5044290;28;20412;-84
2023/06/05 05:13:35;;;;;;;;;;;;;;;19.82;nan;102267.72;5043671;28;19947;-85
2023/06/05 05:16:01;;;;;;;;;;;;;;;19.96;nan;102274.25;5041349;28;19929;-85
2023/06/05 05:18:28;;;;;;;;;;;;;;;20.09;nan;102279.09;5041426;28;19943;-84
2023/06/05 05:20:53;;;;;;;;;;;;;;;20.23;nan;102274.72;5042690;28;19923;-83
2023/06/05 05:23:18;;;;;;;;;;;;;;;20.38;nan;102273.06;5043645;28;19916;-83
2023/06/05 05:25:44;;;;;;;;;;;;;;;20.51;nan;102269.78;5042973;28;19923;-84
2023/06/05 05:28:09;;;;;;;;;;;;;;;20.66;nan;102272.47;5042283;28;20007;-84
2023/06/05 05:30:35;;;;;;;;;;;;;;;20.81;nan;102277.81;5041735;28;19925;-84
2023/06/05 05:33:00;;;;;;;;;;;;;;;20.94;nan;102275.59;5043628;28;19921;-84
2023/06/05 05:35:25;;;;;;;;;;;;;;;21.08;nan;102271.97;5043676;28;19924;-83
2023/06/05 05:37:51;;;;;;;;;;;;;;;21.20;nan;102279.81;5040581;28;19964;-85
2023/06/05 05:40:16;;;;;;;;;;;;;;;21.30;nan;102277.03;5041034;28;19927;-84
2023/06/05 05:42:41;;;;;;;;;;;;;;;21.45;nan;102280.75;5042274;28;19929;-83
2023/06/05 05:45:07;;;;;;;;;;;;;;;21.60;nan;102276.00;5044412;28;19921;-85
2023/06/05 05:47:32;;;;;;;;;;;;;;;21.75;nan;102277.78;5043039;28;19932;-83
2023/06/05 05:49:58;;;;;;;;;;;;;;;21.87;nan;102285.56;5045999;28;20007;-84
2023/06/05 05:52:23;;;;;;;;;;;;;;;21.99;nan;102286.00;5043734;28;19924;-85
2023/06/05 05:54:49;;;;;;;;;;;;;;;22.17;nan;102289.97;5044512;28;19920;-84
2023/06/05 05:57:14;;;;;;;;;;;;;;;22.31;nan;102283.53;5045677;28;19925;-85
2023/06/05 05:59:42;;;;;;;;;;;;;;;22.48;nan;102294.00;5044478;28;20384;-84
2023/06/05 06:02:09;;;;;;;;;;;;;;;22.63;nan;102286.72;5042262;28;20002;-84
2023/06/05 06:04:35;;;;;;;;;;;;;;;22.76;nan;102278.59;5046476;28;19924;-84
2023/06/05 06:07:00;;;;;;;;;;;;;;;22.89;nan;102285.31;5048151;28;20466;-84
2023/06/05 06:09:26;;;;;;;;;;;;;;;22.99;nan;102279.72;5047483;28;19960;-84
2023/06/05 06:11:55;;;;;;;;;;;;;;;23.13;nan;102291.53;5060477;28;19943;-84
2023/06/05 06:14:21;;;;;;;;;;;;;;;23.25;nan;102279.34;5048158;28;19917;-84
2023/06/05 06:16:46;;;;;;;;;;;;;;;23.39;nan;102282.94;5048407;28;21070;-84
2023/06/05 06:19:15;;;;;;;;;;;;;;;23.48;nan;102287.44;5045519;28;20312;-84
2023/06/05 06:21:40;;;;;;;;;;;;;;;23.59;nan;102284.56;5046143;28;19925;-84
2023/06/05 06:24:06;;;;;;;;;;;;;;;23.73;nan;102293.66;5046234;28;19929;-85
2023/06/05 06:26:31;;;;;;;;;;;;;;;23.88;nan;102287.06;5048462;28;19921;-85
2023/06/05 06:28:59;;;;;;;;;;;;;;;24.00;nan;102288.22;5041822;28;19925;-85
2023/06/05 06:31:24;;;;;;;;;;;;;;;24.13;nan;102288.56;5044583;28;20462;-84
2023/06/05 06:33:50;;;;;;;;;;;;;;;24.25;nan;102288.88;5047020;28;19956;-84
2023/06/05 06:36:17;;;;;;;;;;;;;;;24.44;nan;102297.03;5043443;28;19921;-85
2023/06/05 06:38:42;;;;;;;;;;;;;;;24.61;nan;102297.25;5045132;28;19923;-85
2023/06/05 06:41:08;;;;;;;;;;;;;;;24.75;nan;102295.28;5047778;28;19921;-86
2023/06/05 06:43:33;;;;;;;;;;;;;;;24.90;nan;102300.44;5048315;28;21029;-84
2023/06/05 06:46:00;;;;;;;;;;;;;;;25.05;nan;102304.00;5048987;28;19923;-85
2023/06/05 06:48:25;;;;;;;;;;;;;;;25.20;nan;102303.66;5043864;28;19925;-84
2023/06/05 06:50:51;;;;;;;;;;;;;;;25.37;nan;102306.53;5047003;28;20762;-84
2023/06/05 06:53:16;;;;;;;;;;;;;;;25.49;nan;102306.78;5047828;28;19951;-84
2023/06/05 06:55:42;;;;;;;;;;;;;;;25.64;nan;102302.03;5049040;28;20328;-84
2023/06/05 06:58:07;;;;;;;;;;;;;;;25.80;nan;102300.56;5048871;28;20023;-85
2023/06/05 07:00:33;;;;;;;;;;;;;;;25.94;nan;102306.00;5048645;28;20435;-84
2023/06/05 07:02:59;;;;;;;;;;;;;;;26.05;nan;102299.91;5045957;28;20637;-85
2023/06/05 07:05:24;;;;;;;;;;;;;;;26.19;nan;102303.38;5044491;28;20019;-84
2023/06/05 07:07:49;;;;;;;;;;;;;;;26.33;nan;102306.00;5047065;28;19964;-85
2023/06/05 07:10:15;;;;;;;;;;;;;;;26.47;nan;102303.19;5048243;28;19921;-85
2023/06/05 07:12:40;;;;;;;;;;;;;;;26.62;nan;102308.25;5048388;28;19970;-84
2023/06/05 07:15:06;;;;;;;;;;;;;;;26.73;nan;102300.50;5048628;28;19917;-85
2023/06/05 07:17:31;;;;;;;;;;;;;;;26.88;nan;102299.25;5043649;28;19932;-85
2023/06/05 07:19:57;;;;;;;;;;;;;;;27.04;nan;102297.69;5045226;28;20007;-85
2023/06/05 07:22:24;;;;;;;;;;;;;;;27.18;nan;102298.34;5045305;28;19932;-85
2023/06/05 07:24:50;;;;;;;;;;;;;;;27.30;nan;102295.75;5046930;28;19917;-85
2023/06/05 07:27:16;;;;;;;;;;;;;;;27.39;nan;102301.25;5047748;28;20381;-85
2023/06/05 07:29:41;;;;;;;;;;;;;;;27.49;nan;102300.91;5046726;28;19925;-86
2023/06/05 07:32:07;;;;;;;;;;;;;;;27.63;nan;102289.75;5046134;28;19924;-84
2023/06/05 07:34:33;;;;;;;;;;;;;;;27.76;nan;102291.50;5046521;28;19921;-85
2023/06/05 07:36:59;;;;;;;;;;;;;;;27.88;nan;102294.41;5048021;28;19924;-85
2023/06/05 07:39:24;;;;;;;;;;;;;;;28.02;nan;102291.44;5045614;28;19917;-86
2023/06/05 07:41:50;;;;;;;;;;;;;;;28.17;nan;102292.81;5048235;28;20446;-84
2023/06/05 07:44:16;;;;;;;;;;;;;;;28.36;nan;102286.94;5046736;28;19969;-84
2023/06/05 07:46:43;;;;;;;;;;;;;;;28.54;nan;102297.53;5045617;28;19924;-85
2023/06/05 07:49:09;;;;;;;;;;;;;;;28.68;nan;102294.53;5044934;28;19925;-85
2023/06/05 07:51:35;;;;;;;;;;;;;;;28.83;nan;102298.66;5047929;28;19924;-85
2023/06/05 07:54:05;;;;;;;;;;;;;;;28.96;nan;102292.13;5048680;28;19917;-85
2023/06/05 07:56:31;;;;;;;;;;;;;;;29.11;nan;102293.47;5047677;28;19925;-87
2023/06/05 07:58:56;;;;;;;;;;;;;;;29.27;nan;102288.97;5042802;28;19925;-84
2023/06/05 08:01:22;;;;;;;;;;;;;;;29.34;nan;102289.19;5040596;28;19917;-85
2023/06/05 08:03:47;;;;;;;;;;;;;;;29.38;nan;102290.13;5042694;28;19925;-85
2023/06/05 08:06:13;;;;;;;;;;;;;;;29.45;nan;102282.16;5047626;28;19924;-84
2023/06/05 08:08:38;;;;;;;;;;;;;;;29.58;nan;102280.22;5043160;28;19924;-85
2023/06/05 08:11:03;;;;;;;;;;;;;;;29.72;nan;102280.72;5048270;28;19920;-86
2023/06/05 08:13:29;;;;;;;;;;;;;;;29.84;nan;102285.50;5048238;28;19924;-85
2023/06/05 08:15:55;;;;;;;;;;;;;;;30.00;nan;102286.44;5044581;28;20002;-85
2023/06/05 08:18:21;;;;;;;;;;;;;;;30.04;nan;102281.06;5047596;28;20012;-85
2023/06/05 08:20:46;;;;;;;;;;;;;;;30.14;nan;102283.34;5044980;28;19916;-85
2023/06/05 08:23:12;;;;;;;;;;;;;;;30.36;nan;102284.88;5055259;28;19959;-85
2023/06/05 08:25:37;;;;;;;;;;;;;;;30.53;nan;102281.88;5046062;28;19921;-85
2023/06/05 08:28:03;;;;;;;;;;;;;;;30.62;nan;102281.75;5044040;28;19928;-84
2023/06/05 08:30:28;;;;;;;;;;;;;;;30.70;nan;102285.53;5048056;28;20031;-84
2023/06/05 08:32:53;;;;;;;;;;;;;;;30.85;nan;102288.41;5044189;28;19917;-84
2023/06/05 08:35:19;;;;;;;;;;;;;;;31.00;nan;102284.09;5042343;28;20010;-85
2023/06/05 08:37:44;;;;;;;;;;;;;;;31.17;nan;102283.00;5046952;28;19940;-85
2023/06/05 08:40:10;;;;;;;;;;;;;;;31.36;nan;102274.88;5040994;28;19916;-87
2023/06/05 08:42:37;;;;;;;;;;;;;;;31.50;nan;102274.47;5049489;28;20031;-85
2023/06/05 08:45:04;;;;;;;;;;;;;;;31.64;nan;102276.81;5046120;28;20381;-85
2023/06/05 08:47:32;;;;;;;;;;;;;;;31.73;nan;102272.75;5046511;28;20161;-86
2023/06/05 08:50:01;;;;;;;;;;;;;;;31.86;nan;102276.25;5048968;28;19917;-85
2023/06/05 08:52:29;;;;;;;;;;;;;;;32.01;nan;102274.63;5046111;28;19978;-85
2023/06/05 08:54:57;;;;;;;;;;;;;;;32.15;nan;102263.91;5043699;28;20023;-85
2023/06/05 08:57:22;;;;;;;;;;;;;;;32.26;nan;102253.06;5043455;28;19921;-85
2023/06/05 08:59:49;;;;;;;;;;;;;;;32.29;nan;102249.59;5045182;28;19932;-86
2023/06/05 09:02:15;;;;;;;;;;;;;;;32.37;nan;102259.69;5044097;28;19924;-85
2023/06/05 09:04:40;;;;;;;;;;;;;;;32.52;nan;102260.84;5044511;28;19916;-85
2023/06/05 09:07:06;;;;;;;;;;;;;;;32.58;nan;102262.16;5048377;28;19928;-86
2023/06/05 09:09:33;;;;;;;;;;;;;;;32.62;nan;102252.72;5044411;28;20281;-85
2023/06/05 09:12:02;;;;;;;;;;;;;;;32.64;nan;102247.63;5046471;28;19943;-85
2023/06/05 09:14:28;;;;;;;;;;;;;;;32.64;nan;102239.28;5045540;28;19920;-85
2023/06/05 09:16:53;;;;;;;;;;;;;;;32.76;nan;102236.41;5045124;28;19928;-85
2023/06/05 09:19:24;;;;;;;;;;;;;;;32.99;nan;102241.25;5046522;28;20015;-86
2023/06/05 09:21:54;;;;;;;;;;;;;;;33.20;nan;102244.44;5044856;28;19924;-85
2023/06/05 09:24:21;;;;;;;;;;;;;;;33.33;nan;102234.81;5045393;28;19917;-82
2023/06/05 09:26:52;;;;;;;;;;;;;;;33.50;nan;102241.88;5044468;28;19939;-82
2023/06/05 09:29:24;;;;;;;;;;;;;;;33.61;nan;102240.09;5044278;28;19939;-82
2023/06/05 09:31:51;;;;;;;;;;;;;;;33.70;nan;102250.97;5043288;28;19925;-82
2023/06/05 09:34:23;;;;;;;;;;;;;;;33.78;nan;102235.22;5046212;28;19917;-82
2023/06/05 09:36:49;;;;;;;;;;;;;;;33.82;nan;102247.19;5044621;28;19929;-82
2023/06/05 09:39:15;;;;;;;;;;;;;;;33.80;nan;102239.22;5050401;28;20023;-82
2023/06/05 09:41:41;;;;;;;;;;;;;;;33.84;nan;102226.22;5043207;28;19963;-83
2023/06/05 09:44:07;;;;;;;;;;;;;;;34.01;nan;102238.81;5045343;28;19921;-83
2023/06/05 09:46:32;;;;;;;;;;;;;;;34.00;nan;102236.41;5049756;28;20408;-83
2023/06/05 09:49:01;;;;;;;;;;;;;;;33.93;nan;102229.56;5047168;28;20400;-84
2023/06/05 09:51:26;;;;;;;;;;;;;;;33.75;nan;102230.38;5046981;28;19917;-84
2023/06/05 09:53:51;;;;;;;;;;;;;;;33.63;nan;102231.38;5046795;28;19921;-83
2023/06/05 09:56:18;;;;;;;;;;;;;;;33.71;nan;102224.75;5050049;28;20304;-84
2023/06/05 09:58:50;;;;;;;;;;;;;;;33.91;nan;102228.31;5045033;28;20011;-84
2023/06/05 10:01:19;;;;;;;;;;;;;;;34.05;nan;102213.81;5045140;28;19927;-84
2023/06/05 10:03:47;;;;;;;;;;;;;;;34.19;nan;102214.84;5048638;28;19920;-84
2023/06/05 10:06:14;;;;;;;;;;;;;;;34.29;nan;102216.16;5049369;28;19920;-85
2023/06/05 10:08:39;;;;;;;;;;;;;;;34.43;nan;102213.63;5049258;28;19916;-84
2023/06/05 10:11:06;;;;;;;;;;;;;;;34.59;nan;102215.41;5047648;28;20320;-85
2023/06/05 10:13:31;;;;;;;;;;;;;;;34.72;nan;102214.00;5045133;28;19963;-85
2023/06/05 10:15:58;;;;;;;;;;;;;;;34.86;nan;102217.00;5040310;28;20403;-84
2023/06/05 10:18:23;;;;;;;;;;;;;;;35.00;nan;102217.16;5046961;28;19936;-85
2023/06/05 10:20:48;;;;;;;;;;;;;;;35.14;nan;102210.94;5046787;28;20330;-85
2023/06/05 10:23:18;;;;;;;;;;;;;;;35.23;nan;102205.88;5048949;28;20448;-85
2023/06/05 10:25:46;;;;;;;;;;;;;;;35.35;nan;102204.81;5044849;28;20006;-84
2023/06/05 10:28:26;;;;;;;;;;;;;;;35.41;nan;102208.88;5051219;28;20011;-85
2023/06/05 10:31:10;;;;;;;;;;;;;;;35.43;nan;102198.13;5045027;28;19933;-86
2023/06/05 10:33:54;;;;;;;;;;;;;;;35.30;nan;102203.16;5042321;28;19921;-85
2023/06/05 10:36:33;;;;;;;;;;;;;;;35.28;nan;102199.94;5044422;28;20399;-86
2023/06/05 10:39:00;;;;;;;;;;;;;;;35.31;nan;102190.81;5048491;28;19974;-85
2023/06/05 10:41:25;;;;;;;;;;;;;;;35.40;nan;102199.69;5047279;28;19920;-85
2023/06/05 10:43:55;;;;;;;;;;;;;;;35.24;nan;102193.53;5043421;28;20399;-85
2023/06/05 10:46:26;;;;;;;;;;;;;;;35.16;nan;102191.06;5047377;28;19924;-87
2023/06/05 10:49:05;;;;;;;;;;;;;;;35.06;nan;102184.19;5040735;28;19921;-85
2023/06/05 10:51:37;;;;;;;;;;;;;;;35.22;nan;102172.81;5044331;28;20470;-85
2023/06/05 10:54:03;;;;;;;;;;;;;;;35.40;nan;102188.56;5048817;28;20421;-86
2023/06/05 10:56:47;;;;;;;;;;;;;;;35.53;nan;102179.88;5044723;28;19931;-85
2023/06/05 10:59:14;;;;;;;;;;;;;;;35.40;nan;102171.03;5041741;28;19952;-85
2023/06/05 11:01:39;;;;;;;;;;;;;;;35.41;nan;102169.84;5040574;28;19947;-85
2023/06/05 11:04:04;;;;;;;;;;;;;;;35.44;nan;102169.06;5044719;28;19925;-85
2023/06/05 11:06:30;;;;;;;;;;;;;;;35.50;nan;102161.16;5041849;28;19974;-84
2023/06/05 11:09:08;;;;;;;;;;;;;;;35.59;nan;102156.88;5046313;28;19921;-85
2023/06/05 11:11:53;;;;;;;;;;;;;;;35.68;nan;102162.09;5045983;28;19920;-85
2023/06/05 11:14:18;;;;;;;;;;;;;;;35.78;nan;102160.59;5045336;28;20415;-85
2023/06/05 11:16:43;;;;;;;;;;;;;;;35.95;nan;102157.94;5053437;28;19921;-85
2023/06/05 11:19:15;;;;;;;;;;;;;;;36.13;nan;102158.06;5042446;28;20345;-85
2023/06/05 11:21:59;;;;;;;;;;;;;;;36.20;nan;102151.69;5047838;28;19917;-86
2023/06/05 11:24:25;;;;;;;;;;;;;;;36.18;nan;102157.69;5045853;28;19920;-86
2023/06/05 11:26:50;;;;;;;;;;;;;;;36.16;nan;102148.91;5047397;28;19969;-85
2023/06/05 11:29:15;;;;;;;;;;;;;;;36.13;nan;102152.47;5047130;28;20040;-86
2023/06/05 11:31:42;;;;;;;;;;;;;;;36.09;nan;102148.88;5046823;28;19970;-86
2023/06/05 11:34:11;;;;;;;;;;;;;;;36.10;nan;102146.88;5047168;28;19917;-86
2023/06/05 11:36:36;;;;;;;;;;;;;;;36.22;nan;102147.31;5051653;28;19928;-85
2023/06/05 11:39:02;;;;;;;;;;;;;;;36.44;nan;102144.66;5044563;28;19925;-86
2023/06/05 11:41:27;;;;;;;;;;;;;;;36.65;nan;102141.97;5047072;28;19929;-86
2023/06/05 11:43:52;;;;;;;;;;;;;;;36.84;nan;102150.03;5043011;28;19931;-86
2023/06/05 11:46:18;;;;;;;;;;;;;;;36.81;nan;102141.66;5040932;28;19924;-86
2023/06/05 11:48:44;;;;;;;;;;;;;;;36.80;nan;102143.59;5056783;28;20011;-87
2023/06/05 11:51:10;;;;;;;;;;;;;;;36.85;nan;102140.44;5044958;28;19983;-87
2023/06/05 11:53:37;;;;;;;;;;;;;;;37.00;nan;102132.91;5048369;28;20527;-88
2023/06/05 11:56:11;;;;;;;;;;;;;;;37.13;nan;102134.09;5042664;28;19928;-85
2023/06/05 11:58:38;;;;;;;;;;;;;;;37.01;nan;102136.50;5044534;28;20276;-85
2023/06/05 12:01:25;;;;;;;;;;;;;;;37.01;nan;102133.69;5044311;28;20015;-85
2023/06/05 12:04:02;;;;;;;;;;;;;;;37.02;nan;102127.72;5046427;28;19973;-86
2023/06/05 12:06:29;;;;;;;;;;;;;;;37.05;nan;102126.13;5046904;28;20446;-85
2023/06/05 12:09:06;;;;;;;;;;;;;;;37.09;nan;102132.50;5044946;28;20015;-85
2023/06/05 12:11:31;;;;;;;;;;;;;;;37.24;nan;102125.72;5046838;28;19991;-85
2023/06/05 12:13:57;;;;;;;;;;;;;;;37.31;nan;102125.75;5044333;28;20383;-85
2023/06/05 12:16:34;;;;;;;;;;;;;;;37.38;nan;102130.56;5045826;28;19920;-84
2023/06/05 12:19:10;;;;;;;;;;;;;;;37.49;nan;102120.16;5039374;28;20392;-85
2023/06/05 12:21:36;;;;;;;;;;;;;;;37.61;nan;102113.34;5042281;28;20047;-85
2023/06/05 12:24:02;;;;;;;;;;;;;;;37.64;nan;102112.56;5039722;28;20524;-84
2023/06/05 12:26:32;;;;;;;;;;;;;;;37.64;nan;102112.56;5034636;28;19921;-85
2023/06/05 12:29:07;;;;;;;;;;;;;;;37.70;nan;102122.13;5044016;28;19927;-85
2023/06/05 12:31:36;;;;;;;;;;;;;;;37.60;nan;102103.38;5043026;28;19920;-87
2023/06/05 12:34:04;;;;;;;;;;;;;;;37.41;nan;102102.59;5042727;28;19924;-88
2023/06/05 12:36:31;;;;;;;;;;;;;;;37.40;nan;102103.81;5042727;28;19963;-86
2023/06/05 12:39:01;;;;;;;;;;;;;;;37.47;nan;102103.78;5047672;28;20507;-85
2023/06/05 12:41:26;;;;;;;;;;;;;;;37.70;nan;102113.72;5045128;28;19920;-86
2023/06/05 12:44:04;;;;;;;;;;;;;;;37.88;nan;102105.31;5045771;28;19920;-86
2023/06/05 12:46:30;;;;;;;;;;;;;;;37.92;nan;102101.34;5034838;28;19926;-86
2023/06/05 12:48:57;;;;;;;;;;;;;;;38.04;nan;102097.28;5042001;28;20020;-86
2023/06/05 12:51:23;;;;;;;;;;;;;;;38.23;nan;102093.25;5044534;28;19921;-85
2023/06/05 12:53:48;;;;;;;;;;;;;;;38.39;nan;102088.75;5044487;28;19951;-84
2023/06/05 12:56:14;;;;;;;;;;;;;;;38.44;nan;102093.16;5046347;28;20007;-84